sensor_id;sensor_type;location;lat;lon;timestamp;pressure;altitude;pressure_sealevel;temperature;humidity
69223;BME280;56514;51.816;-0.026;2023-03-01T00:00:06;102746.44;;;7.33;65.11
69223;BME280;56514;51.816;-0.026;2023-03-01T00:03:10;102750.03;;;7.31;64.89
69223;BME280;56514;51.816;-0.026;2023-03-01T00:06:16;102750.94;;;7.30;64.72
69223;BME280;56514;51.816;-0.026;2023-03-01T00:09:24;102753.59;;;7.28;65.32
69223;BME280;56514;51.816;-0.026;2023-03-01T00:12:29;102747.53;;;7.25;65.56
69223;BME280;56514;51.816;-0.026;2023-03-01T00:15:39;102757.16;;;7.24;65.36
69223;BME280;56514;51.816;-0.026;2023-03-01T00:18:50;102757.22;;;7.21;65.43
69223;BME280;56514;51.816;-0.026;2023-03-01T00:22:00;102759.09;;;7.16;65.96
69223;BME280;56514;51.816;-0.026;2023-03-01T00:25:09;102755.56;;;7.17;65.42
69223;BME280;56514;51.816;-0.026;2023-03-01T00:28:19;102758.19;;;7.17;65.41
69223;BME280;56514;51.816;-0.026;2023-03-01T00:31:30;102760.88;;;7.14;65.88
69223;BME280;56514;51.816;-0.026;2023-03-01T00:34:40;102764.44;;;7.13;66.04
69223;BME280;56514;51.816;-0.026;2023-03-01T00:37:49;102763.66;;;7.08;66.01
69223;BME280;56514;51.816;-0.026;2023-03-01T00:41:08;102757.50;;;7.09;66.02
69223;BME280;56514;51.816;-0.026;2023-03-01T00:44:18;102757.44;;;7.12;66.25
69223;BME280;56514;51.816;-0.026;2023-03-01T00:47:28;102754.72;;;7.15;66.01
69223;BME280;56514;51.816;-0.026;2023-03-01T00:50:38;102751.22;;;7.16;66.06
69223;BME280;56514;51.816;-0.026;2023-03-01T00:53:50;102751.22;;;7.16;66.06
69223;BME280;56514;51.816;-0.026;2023-03-01T00:57:00;102740.78;;;7.14;65.68
69223;BME280;56514;51.816;-0.026;2023-03-01T01:00:09;102741.69;;;7.12;65.85
69223;BME280;56514;51.816;-0.026;2023-03-01T01:03:20;102737.41;;;7.08;66.06
69223;BME280;56514;51.816;-0.026;2023-03-01T01:06:35;102733.09;;;7.04;66.43
69223;BME280;56514;51.816;-0.026;2023-03-01T01:09:46;102732.31;;;7.00;66.24
69223;BME280;56514;51.816;-0.026;2023-03-01T01:12:55;102737.50;;;7.03;66.12
69223;BME280;56514;51.816;-0.026;2023-03-01T01:15:42;102732.22;;;7.05;66.17
69223;BME280;56514;51.816;-0.026;2023-03-01T01:18:27;102735.75;;;7.02;66.39
69223;BME280;56514;51.816;-0.026;2023-03-01T01:21:15;102740.06;;;7.06;66.54
69223;BME280;56514;51.816;-0.026;2023-03-01T01:24:03;102732.97;;;7.11;66.56
69223;BME280;56514;51.816;-0.026;2023-03-01T01:26:48;102732.03;;;7.14;66.02
69223;BME280;56514;51.816;-0.026;2023-03-01T01:29:33;102729.41;;;7.14;66.36
69223;BME280;56514;51.816;-0.026;2023-03-01T01:32:18;102736.44;;;7.12;66.54
69223;BME280;56514;51.816;-0.026;2023-03-01T01:35:03;102740.03;;;7.08;66.46
69223;BME280;56514;51.816;-0.026;2023-03-01T01:37:49;102733.13;;;7.02;67.42
69223;BME280;56514;51.816;-0.026;2023-03-01T01:40:34;102723.63;;;6.97;67.26
69223;BME280;56514;51.816;-0.026;2023-03-01T01:43:25;102719.44;;;6.90;67.75
69223;BME280;56514;51.816;-0.026;2023-03-01T01:46:41;102722.94;;;6.89;67.71
69223;BME280;56514;51.816;-0.026;2023-03-01T01:49:40;102728.19;;;6.89;67.64
69223;BME280;56514;51.816;-0.026;2023-03-01T01:52:34;102709.84;;;6.87;67.92
69223;BME280;56514;51.816;-0.026;2023-03-01T01:55:24;102716.88;;;6.87;67.77
69223;BME280;56514;51.816;-0.026;2023-03-01T01:58:15;102711.75;;;6.81;68.59
69223;BME280;56514;51.816;-0.026;2023-03-01T02:01:03;102707.50;;;6.74;69.18
69223;BME280;56514;51.816;-0.026;2023-03-01T02:03:48;102706.63;;;6.75;69.10
69223;BME280;56514;51.816;-0.026;2023-03-01T02:06:38;102705.75;;;6.74;69.15
69223;BME280;56514;51.816;-0.026;2023-03-01T02:09:25;102690.03;;;6.74;69.02
69223;BME280;56514;51.816;-0.026;2023-03-01T02:12:14;102692.81;;;6.67;69.93
69223;BME280;56514;51.816;-0.026;2023-03-01T02:14:59;102692.00;;;6.63;70.00
69223;BME280;56514;51.816;-0.026;2023-03-01T02:17:44;102682.34;;;6.65;69.64
69223;BME280;56514;51.816;-0.026;2023-03-01T02:20:59;102674.44;;;6.67;70.15
69223;BME280;56514;51.816;-0.026;2023-03-01T02:23:39;102677.06;;;6.67;70.06
69223;BME280;56514;51.816;-0.026;2023-03-01T02:29:26;102667.47;;;6.66;70.15
69223;BME280;56514;51.816;-0.026;2023-03-01T02:32:13;102672.66;;;6.67;69.67
69223;BME280;56514;51.816;-0.026;2023-03-01T02:34:59;102659.56;;;6.67;70.03
69223;BME280;56514;51.816;-0.026;2023-03-01T02:37:44;102664.78;;;6.69;70.24
69223;BME280;56514;51.816;-0.026;2023-03-01T02:40:30;102661.25;;;6.71;69.79
69223;BME280;56514;51.816;-0.026;2023-03-01T02:43:19;102657.69;;;6.74;69.72
69223;BME280;56514;51.816;-0.026;2023-03-01T02:46:19;102657.72;;;6.72;69.87
69223;BME280;56514;51.816;-0.026;2023-03-01T02:49:19;102655.09;;;6.72;69.98
69223;BME280;56514;51.816;-0.026;2023-03-01T02:55:14;102651.56;;;6.75;69.93
69223;BME280;56514;51.816;-0.026;2023-03-01T02:58:02;102650.66;;;6.76;70.06
69223;BME280;56514;51.816;-0.026;2023-03-01T03:00:47;102651.56;;;6.75;69.95
69223;BME280;56514;51.816;-0.026;2023-03-01T03:03:34;102644.56;;;6.74;69.97
69223;BME280;56514;51.816;-0.026;2023-03-01T03:06:18;102641.97;;;6.72;70.01
69223;BME280;56514;51.816;-0.026;2023-03-01T03:09:05;102640.31;;;6.68;69.97
69223;BME280;56514;51.816;-0.026;2023-03-01T03:11:49;102633.25;;;6.70;70.05
69223;BME280;56514;51.816;-0.026;2023-03-01T03:14:34;102628.03;;;6.70;69.73
69223;BME280;56514;51.816;-0.026;2023-03-01T03:17:19;102641.16;;;6.69;70.14
69223;BME280;56514;51.816;-0.026;2023-03-01T03:20:06;102628.06;;;6.69;70.17
69223;BME280;56514;51.816;-0.026;2023-03-01T03:22:56;102628.97;;;6.68;70.11
69223;BME280;56514;51.816;-0.026;2023-03-01T03:25:43;102628.91;;;6.71;69.83
69223;BME280;56514;51.816;-0.026;2023-03-01T03:28:27;102622.72;;;6.75;69.75
69223;BME280;56514;51.816;-0.026;2023-03-01T03:31:12;102620.06;;;6.76;69.79
69223;BME280;56514;51.816;-0.026;2023-03-01T03:33:57;102624.38;;;6.77;69.63
69223;BME280;56514;51.816;-0.026;2023-03-01T03:36:43;102619.97;;;6.79;69.62
69223;BME280;56514;51.816;-0.026;2023-03-01T03:39:28;102619.94;;;6.81;69.70
69223;BME280;56514;51.816;-0.026;2023-03-01T03:42:13;102607.72;;;6.80;69.55
69223;BME280;56514;51.816;-0.026;2023-03-01T03:44:58;102611.19;;;6.80;69.50
69223;BME280;56514;51.816;-0.026;2023-03-01T03:47:43;102610.34;;;6.80;69.60
69223;BME280;56514;51.816;-0.026;2023-03-01T03:50:29;102605.13;;;6.78;69.84
69223;BME280;56514;51.816;-0.026;2023-03-01T03:53:14;102600.81;;;6.76;70.03
69223;BME280;56514;51.816;-0.026;2023-03-01T03:55:58;102592.97;;;6.74;69.79
69223;BME280;56514;51.816;-0.026;2023-03-01T03:58:43;102591.22;;;6.75;69.60
69223;BME280;56514;51.816;-0.026;2023-03-01T04:01:28;102581.66;;;6.72;69.74
69223;BME280;56514;51.816;-0.026;2023-03-01T04:04:13;102578.16;;;6.73;69.49
69223;BME280;56514;51.816;-0.026;2023-03-01T04:06:58;102571.97;;;6.76;69.84
69223;BME280;56514;51.816;-0.026;2023-03-01T04:09:43;102571.06;;;6.77;69.39
69223;BME280;56514;51.816;-0.026;2023-03-01T04:12:27;102564.16;;;6.73;69.69
69223;BME280;56514;51.816;-0.026;2023-03-01T04:15:12;102559.00;;;6.70;69.48
69223;BME280;56514;51.816;-0.026;2023-03-01T04:17:57;102565.06;;;6.70;70.01
69223;BME280;56514;51.816;-0.026;2023-03-01T04:20:44;102571.19;;;6.71;69.58
69223;BME280;56514;51.816;-0.026;2023-03-01T04:23:29;102561.63;;;6.70;69.95
69223;BME280;56514;51.816;-0.026;2023-03-01T04:26:14;102556.41;;;6.68;69.33
69223;BME280;56514;51.816;-0.026;2023-03-01T04:28:59;102560.84;;;6.65;69.76
69223;BME280;56514;51.816;-0.026;2023-03-01T04:31:43;102555.53;;;6.68;69.81
69223;BME280;56514;51.816;-0.026;2023-03-01T04:34:29;102555.44;;;6.72;69.32
69223;BME280;56514;51.816;-0.026;2023-03-01T04:37:14;102553.59;;;6.76;69.46
69223;BME280;56514;51.816;-0.026;2023-03-01T04:40:02;102559.69;;;6.78;69.16
69223;BME280;56514;51.816;-0.026;2023-03-01T04:42:57;102567.59;;;6.76;69.41
69223;BME280;56514;51.816;-0.026;2023-03-01T04:45:42;102555.34;;;6.75;69.02
69223;BME280;56514;51.816;-0.026;2023-03-01T04:48:27;102564.97;;;6.76;69.37
69223;BME280;56514;51.816;-0.026;2023-03-01T04:51:12;102556.25;;;6.74;69.24
69223;BME280;56514;51.816;-0.026;2023-03-01T04:54:00;102551.97;;;6.70;69.53
69223;BME280;56514;51.816;-0.026;2023-03-01T04:56:45;102552.91;;;6.68;69.30
69223;BME280;56514;51.816;-0.026;2023-03-01T04:59:30;102557.31;;;6.66;69.56
69223;BME280;56514;51.816;-0.026;2023-03-01T05:02:15;102550.34;;;6.65;69.35
69223;BME280;56514;51.816;-0.026;2023-03-01T05:04:59;102556.47;;;6.65;69.31
69223;BME280;56514;51.816;-0.026;2023-03-01T05:07:44;102553.84;;;6.65;69.62
69223;BME280;56514;51.816;-0.026;2023-03-01T05:10:30;102545.94;;;6.67;69.55
69223;BME280;56514;51.816;-0.026;2023-03-01T05:13:16;102550.34;;;6.65;69.69
69223;BME280;56514;51.816;-0.026;2023-03-01T05:16:07;102549.47;;;6.64;69.83
69223;BME280;56514;51.816;-0.026;2023-03-01T05:18:55;102545.13;;;6.65;69.20
69223;BME280;56514;51.816;-0.026;2023-03-01T05:21:42;102548.69;;;6.62;69.27
69223;BME280;56514;51.816;-0.026;2023-03-01T05:24:46;102542.56;;;6.62;69.64
69223;BME280;56514;51.816;-0.026;2023-03-01T05:27:31;102531.34;;;6.55;69.68
69223;BME280;56514;51.816;-0.026;2023-03-01T05:30:16;102534.84;;;6.56;69.62
69223;BME280;56514;51.816;-0.026;2023-03-01T05:33:02;102533.97;;;6.55;69.45
69223;BME280;56514;51.816;-0.026;2023-03-01T05:35:47;102529.66;;;6.53;69.31
69223;BME280;56514;51.816;-0.026;2023-03-01T05:38:33;102523.50;;;6.54;69.66
69223;BME280;56514;51.816;-0.026;2023-03-01T05:41:18;102523.69;;;6.46;69.24
69223;BME280;56514;51.816;-0.026;2023-03-01T05:44:06;102519.44;;;6.41;69.96
69223;BME280;56514;51.816;-0.026;2023-03-01T05:46:52;102525.72;;;6.35;69.48
69223;BME280;56514;51.816;-0.026;2023-03-01T05:49:37;102525.81;;;6.29;69.94
69223;BME280;56514;51.816;-0.026;2023-03-01T05:52:21;102529.41;;;6.25;70.10
69223;BME280;56514;51.816;-0.026;2023-03-01T05:55:07;102530.38;;;6.21;70.04
69223;BME280;56514;51.816;-0.026;2023-03-01T05:57:52;102531.34;;;6.16;69.76
69223;BME280;56514;51.816;-0.026;2023-03-01T06:00:37;102539.41;;;6.07;69.81
69223;BME280;56514;51.816;-0.026;2023-03-01T06:03:22;102528.28;;;5.97;70.04
69223;BME280;56514;51.816;-0.026;2023-03-01T06:06:06;102537.13;;;5.90;69.87
69223;BME280;56514;51.816;-0.026;2023-03-01T06:08:52;102536.34;;;5.85;70.09
69223;BME280;56514;51.816;-0.026;2023-03-01T06:11:37;102538.97;;;5.85;70.30
69223;BME280;56514;51.816;-0.026;2023-03-01T06:14:22;102538.91;;;5.88;70.56
69223;BME280;56514;51.816;-0.026;2023-03-01T06:17:07;102538.84;;;5.91;70.31
69223;BME280;56514;51.816;-0.026;2023-03-01T06:19:51;102537.06;;;5.93;70.28
69223;BME280;56514;51.816;-0.026;2023-03-01T06:22:36;102542.19;;;5.99;70.73
69223;BME280;56514;51.816;-0.026;2023-03-01T06:25:23;102539.47;;;6.04;70.32
69223;BME280;56514;51.816;-0.026;2023-03-01T06:28:12;102542.00;;;6.08;70.35
69223;BME280;56514;51.816;-0.026;2023-03-01T06:30:57;102544.56;;;6.10;70.48
69223;BME280;56514;51.816;-0.026;2023-03-01T06:33:41;102543.75;;;6.09;70.41
69223;BME280;56514;51.816;-0.026;2023-03-01T06:36:26;102549.03;;;6.06;70.76
69223;BME280;56514;51.816;-0.026;2023-03-01T06:39:12;102552.50;;;6.07;71.16
69223;BME280;56514;51.816;-0.026;2023-03-01T06:41:57;102550.88;;;6.01;71.35
69223;BME280;56514;51.816;-0.026;2023-03-01T06:44:44;102552.66;;;5.99;71.78
69223;BME280;56514;51.816;-0.026;2023-03-01T06:47:29;102558.00;;;5.95;72.04
69223;BME280;56514;51.816;-0.026;2023-03-01T06:50:15;102564.19;;;5.91;72.28
69223;BME280;56514;51.816;-0.026;2023-03-01T06:53:01;102561.66;;;5.86;72.44
69223;BME280;56514;51.816;-0.026;2023-03-01T06:55:47;102565.19;;;5.84;72.63
69223;BME280;56514;51.816;-0.026;2023-03-01T06:58:31;102569.50;;;5.88;72.29
69223;BME280;56514;51.816;-0.026;2023-03-01T07:01:16;102555.44;;;5.92;72.46
69223;BME280;56514;51.816;-0.026;2023-03-01T07:04:01;102551.91;;;5.94;72.71
69223;BME280;56514;51.816;-0.026;2023-03-01T07:06:46;102549.31;;;5.93;73.14
69223;BME280;56514;51.816;-0.026;2023-03-01T07:09:37;102551.97;;;5.90;73.20
69223;BME280;56514;51.816;-0.026;2023-03-01T07:12:21;102555.31;;;5.98;72.89
69223;BME280;56514;51.816;-0.026;2023-03-01T07:15:08;102558.72;;;6.03;72.85
69223;BME280;56514;51.816;-0.026;2023-03-01T07:17:54;102558.69;;;6.04;73.09
69223;BME280;56514;51.816;-0.026;2023-03-01T07:20:39;102559.34;;;6.15;73.49
69223;BME280;56514;51.816;-0.026;2023-03-01T07:23:23;102563.50;;;6.24;72.96
69223;BME280;56514;51.816;-0.026;2023-03-01T07:26:08;102558.09;;;6.31;72.84
69223;BME280;56514;51.816;-0.026;2023-03-01T07:28:53;102560.56;;;6.39;72.75
69223;BME280;56514;51.816;-0.026;2023-03-01T07:31:42;102561.22;;;6.48;72.72
69223;BME280;56514;51.816;-0.026;2023-03-01T07:34:26;102561.06;;;6.56;72.29
69223;BME280;56514;51.816;-0.026;2023-03-01T07:37:13;102560.91;;;6.62;72.19
69223;BME280;56514;51.816;-0.026;2023-03-01T07:39:58;102564.19;;;6.71;72.26
69223;BME280;56514;51.816;-0.026;2023-03-01T07:42:43;102565.75;;;6.80;71.99
69223;BME280;56514;51.816;-0.026;2023-03-01T07:45:28;102562.81;;;6.92;72.17
69223;BME280;56514;51.816;-0.026;2023-03-01T07:48:14;102569.59;;;7.02;72.01
69223;BME280;56514;51.816;-0.026;2023-03-01T07:50:59;102571.06;;;7.13;71.67
69223;BME280;56514;51.816;-0.026;2023-03-01T07:53:48;102563.81;;;7.23;71.24
69223;BME280;56514;51.816;-0.026;2023-03-01T07:56:33;102574.50;;;7.15;71.16
69223;BME280;56514;51.816;-0.026;2023-03-01T07:59:18;102575.31;;;7.19;71.40
69223;BME280;56514;51.816;-0.026;2023-03-01T08:02:03;102570.75;;;7.26;71.46
69223;BME280;56514;51.816;-0.026;2023-03-01T08:04:48;102565.66;;;7.19;71.24
69223;BME280;56514;51.816;-0.026;2023-03-01T08:07:33;102567.41;;;7.21;71.63
69223;BME280;56514;51.816;-0.026;2023-03-01T08:10:19;102558.34;;;7.32;71.41
69223;BME280;56514;51.816;-0.026;2023-03-01T08:13:04;102558.84;;;7.46;71.31
69223;BME280;56514;51.816;-0.026;2023-03-01T08:15:49;102564.63;;;7.60;70.80
69223;BME280;56514;51.816;-0.026;2023-03-01T08:18:34;102553.19;;;7.61;70.52
69223;BME280;56514;51.816;-0.026;2023-03-01T08:21:19;102547.84;;;7.64;70.81
69223;BME280;56514;51.816;-0.026;2023-03-01T08:24:05;102546.06;;;7.66;70.97
69223;BME280;56514;51.816;-0.026;2023-03-01T08:26:50;102538.72;;;7.77;70.68
69223;BME280;56514;51.816;-0.026;2023-03-01T08:29:35;102535.56;;;7.97;70.74
69223;BME280;56514;51.816;-0.026;2023-03-01T08:32:20;102540.47;;;8.09;70.48
69223;BME280;56514;51.816;-0.026;2023-03-01T08:35:06;102535.78;;;8.18;69.91
69223;BME280;56514;51.816;-0.026;2023-03-01T08:37:50;102528.72;;;8.20;69.70
69223;BME280;56514;51.816;-0.026;2023-03-01T08:40:36;102518.06;;;8.26;69.80
69223;BME280;56514;51.816;-0.026;2023-03-01T08:43:20;102513.88;;;8.19;69.69
69223;BME280;56514;51.816;-0.026;2023-03-01T08:46:05;102520.41;;;8.05;69.61
69223;BME280;56514;51.816;-0.026;2023-03-01T08:48:50;102519.00;;;7.93;70.09
69223;BME280;56514;51.816;-0.026;2023-03-01T08:51:36;102515.56;;;7.91;69.88
69223;BME280;56514;51.816;-0.026;2023-03-01T08:54:21;102513.66;;;7.96;69.69
69223;BME280;56514;51.816;-0.026;2023-03-01T08:57:06;102503.16;;;7.96;69.59
69223;BME280;56514;51.816;-0.026;2023-03-01T08:59:51;102507.75;;;7.88;69.33
69223;BME280;56514;51.816;-0.026;2023-03-01T09:02:36;102502.56;;;7.87;69.38
69223;BME280;56514;51.816;-0.026;2023-03-01T09:05:21;102505.25;;;7.84;68.91
69223;BME280;56514;51.816;-0.026;2023-03-01T09:08:06;102510.47;;;7.85;69.35
69223;BME280;56514;51.816;-0.026;2023-03-01T09:10:53;102507.84;;;7.85;69.28
69223;BME280;56514;51.816;-0.026;2023-03-01T09:13:38;102505.13;;;7.88;69.47
69223;BME280;56514;51.816;-0.026;2023-03-01T09:16:23;102520.63;;;7.97;69.21
69223;BME280;56514;51.816;-0.026;2023-03-01T09:19:08;102512.88;;;8.23;69.52
69223;BME280;56514;51.816;-0.026;2023-03-01T09:21:53;102511.75;;;8.59;69.03
69223;BME280;56514;51.816;-0.026;2023-03-01T09:24:38;102511.72;;;8.87;67.88
69223;BME280;56514;51.816;-0.026;2023-03-01T09:27:24;102514.53;;;9.09;66.92
69223;BME280;56514;51.816;-0.026;2023-03-01T09:30:10;102516.22;;;9.36;66.61
69223;BME280;56514;51.816;-0.026;2023-03-01T09:32:58;102516.97;;;9.64;66.41
69223;BME280;56514;51.816;-0.026;2023-03-01T09:35:43;102508.19;;;9.88;64.73
69223;BME280;56514;51.816;-0.026;2023-03-01T09:38:31;102506.09;;;9.97;64.43
69223;BME280;56514;51.816;-0.026;2023-03-01T09:41:44;102494.53;;;10.00;63.82
69223;BME280;56514;51.816;-0.026;2023-03-01T09:45:00;102501.69;;;9.98;64.12
69223;BME280;56514;51.816;-0.026;2023-03-01T09:47:46;102499.88;;;9.98;64.37
69223;BME280;56514;51.816;-0.026;2023-03-01T09:50:39;102488.91;;;9.86;63.76
69223;BME280;56514;51.816;-0.026;2023-03-01T09:53:32;102494.03;;;9.67;63.62
69223;BME280;56514;51.816;-0.026;2023-03-01T09:56:27;102494.63;;;9.51;63.75
69223;BME280;56514;51.816;-0.026;2023-03-01T10:02:17;102487.94;;;9.16;63.89
69223;BME280;56514;51.816;-0.026;2023-03-01T10:05:33;102496.38;;;9.26;64.37
69223;BME280;56514;51.816;-0.026;2023-03-01T10:11:36;102497.00;;;9.34;63.49
69223;BME280;56514;51.816;-0.026;2023-03-01T10:14:33;102481.75;;;9.42;64.13
69223;BME280;56514;51.816;-0.026;2023-03-01T10:17:55;102482.78;;;9.62;63.28
69223;BME280;56514;51.816;-0.026;2023-03-01T10:21:05;102480.41;;;9.79;62.75
69223;BME280;56514;51.816;-0.026;2023-03-01T10:23:53;102476.91;;;10.02;62.72
69223;BME280;56514;51.816;-0.026;2023-03-01T10:26:40;102473.47;;;10.23;62.01
69223;BME280;56514;51.816;-0.026;2023-03-01T10:29:39;102471.34;;;10.32;60.46
69223;BME280;56514;51.816;-0.026;2023-03-01T10:32:31;102462.88;;;10.46;61.27
69223;BME280;56514;51.816;-0.026;2023-03-01T10:35:17;102461.81;;;10.72;60.10
69223;BME280;56514;51.816;-0.026;2023-03-01T10:38:09;102456.00;;;11.05;59.71
69223;BME280;56514;51.816;-0.026;2023-03-01T10:41:00;102451.25;;;11.53;59.47
69223;BME280;56514;51.816;-0.026;2023-03-01T10:43:57;102453.53;;;11.61;57.90
69223;BME280;56514;51.816;-0.026;2023-03-01T10:46:42;102454.94;;;11.69;57.75
69223;BME280;56514;51.816;-0.026;2023-03-01T10:49:27;102447.75;;;11.91;57.74
69223;BME280;56514;51.816;-0.026;2023-03-01T10:52:20;102436.81;;;11.99;57.06
69223;BME280;56514;51.816;-0.026;2023-03-01T10:58:09;102436.00;;;11.78;55.62
69223;BME280;56514;51.816;-0.026;2023-03-01T11:01:06;102433.88;;;11.86;55.99
69223;BME280;56514;51.816;-0.026;2023-03-01T11:07:00;102422.06;;;12.30;54.32
69223;BME280;56514;51.816;-0.026;2023-03-01T11:09:46;102424.63;;;12.68;54.36
69223;BME280;56514;51.816;-0.026;2023-03-01T11:12:30;102421.50;;;12.94;53.80
69223;BME280;56514;51.816;-0.026;2023-03-01T11:15:27;102415.78;;;13.03;53.56
69223;BME280;56514;51.816;-0.026;2023-03-01T11:18:22;102416.22;;;12.77;52.70
69223;BME280;56514;51.816;-0.026;2023-03-01T11:21:09;102413.28;;;12.11;52.87
69223;BME280;56514;51.816;-0.026;2023-03-01T11:23:55;102407.13;;;11.74;53.72
69223;BME280;56514;51.816;-0.026;2023-03-01T11:26:47;102401.94;;;11.52;54.35
69223;BME280;56514;51.816;-0.026;2023-03-01T11:32:44;102396.31;;;10.81;55.42
69223;BME280;56514;51.816;-0.026;2023-03-01T11:35:37;102404.88;;;10.66;56.18
69223;BME280;56514;51.816;-0.026;2023-03-01T11:38:27;102392.59;;;10.65;56.47
69223;BME280;56514;51.816;-0.026;2023-03-01T11:41:20;102389.47;;;10.77;56.38
69223;BME280;56514;51.816;-0.026;2023-03-01T11:44:20;102380.34;;;11.04;56.45
69223;BME280;56514;51.816;-0.026;2023-03-01T11:47:37;102372.31;;;11.64;56.01
69223;BME280;56514;51.816;-0.026;2023-03-01T11:53:34;102365.41;;;11.99;53.32
69223;BME280;56514;51.816;-0.026;2023-03-01T11:56:54;102359.56;;;11.54;53.98
69223;BME280;56514;51.816;-0.026;2023-03-01T12:03:38;102346.78;;;11.45;55.05
69223;BME280;56514;51.816;-0.026;2023-03-01T12:18:50;102314.56;;;12.96;51.98
69223;BME280;56514;51.816;-0.026;2023-03-01T12:49:28;102276.81;;;11.53;52.69
69223;BME280;56514;51.816;-0.026;2023-03-01T12:55:16;102262.94;;;11.48;52.83
69223;BME280;56514;51.816;-0.026;2023-03-01T12:58:29;102254.00;;;11.51;53.81
69223;BME280;56514;51.816;-0.026;2023-03-01T13:01:30;102262.28;;;11.80;53.55
69223;BME280;56514;51.816;-0.026;2023-03-01T13:04:32;102257.19;;;11.94;53.49
69223;BME280;56514;51.816;-0.026;2023-03-01T13:13:20;102231.72;;;12.60;51.64
69223;BME280;56514;51.816;-0.026;2023-03-01T13:19:26;102225.53;;;13.71;48.68
69223;BME280;56514;51.816;-0.026;2023-03-01T13:22:32;102217.84;;;14.12;48.31
69223;BME280;56514;51.816;-0.026;2023-03-01T13:25:19;102216.81;;;14.14;47.20
69223;BME280;56514;51.816;-0.026;2023-03-01T13:34:43;102206.59;;;13.32;48.91
69223;BME280;56514;51.816;-0.026;2023-03-01T13:37:34;102209.16;;;12.86;48.88
69223;BME280;56514;51.816;-0.026;2023-03-01T13:43:44;102216.34;;;12.17;50.76
69223;BME280;56514;51.816;-0.026;2023-03-01T13:46:32;102209.50;;;11.96;51.28
69223;BME280;56514;51.816;-0.026;2023-03-01T13:49:21;102213.13;;;11.76;51.99
69223;BME280;56514;51.816;-0.026;2023-03-01T13:55:29;102203.34;;;11.60;52.55
69223;BME280;56514;51.816;-0.026;2023-03-01T13:58:31;102203.63;;;11.54;52.52
69223;BME280;56514;51.816;-0.026;2023-03-01T14:01:53;102196.38;;;11.40;52.87
69223;BME280;56514;51.816;-0.026;2023-03-01T14:04:39;102196.03;;;11.29;52.70
69223;BME280;56514;51.816;-0.026;2023-03-01T14:07:26;102195.34;;;11.07;53.37
69223;BME280;56514;51.816;-0.026;2023-03-01T14:10:14;102191.06;;;10.86;53.94
69223;BME280;56514;51.816;-0.026;2023-03-01T14:13:12;102188.28;;;10.89;53.97
69223;BME280;56514;51.816;-0.026;2023-03-01T14:16:30;102186.53;;;11.07;54.13
69223;BME280;56514;51.816;-0.026;2023-03-01T14:19:20;102183.25;;;11.39;54.06
69223;BME280;56514;51.816;-0.026;2023-03-01T14:22:18;102186.59;;;11.78;53.23
69223;BME280;56514;51.816;-0.026;2023-03-01T14:25:17;102168.66;;;12.18;52.90
69223;BME280;56514;51.816;-0.026;2023-03-01T14:28:11;102162.63;;;12.49;51.88
69223;BME280;56514;51.816;-0.026;2023-03-01T14:30:59;102160.84;;;12.65;50.56
69223;BME280;56514;51.816;-0.026;2023-03-01T14:33:54;102154.56;;;12.68;50.09
69223;BME280;56514;51.816;-0.026;2023-03-01T14:36:40;102151.50;;;12.75;49.42
69223;BME280;56514;51.816;-0.026;2023-03-01T14:39:25;102144.97;;;12.65;49.91
69223;BME280;56514;51.816;-0.026;2023-03-01T14:42:12;102149.97;;;12.54;49.75
69223;BME280;56514;51.816;-0.026;2023-03-01T14:45:00;102147.38;;;12.37;50.17
69223;BME280;56514;51.816;-0.026;2023-03-01T14:47:46;102142.94;;;12.20;50.79
69223;BME280;56514;51.816;-0.026;2023-03-01T14:50:34;102155.59;;;11.98;50.87
69223;BME280;56514;51.816;-0.026;2023-03-01T14:53:25;102144.78;;;11.86;51.80
69223;BME280;56514;51.816;-0.026;2023-03-01T14:56:15;102145.56;;;11.88;52.37
69223;BME280;56514;51.816;-0.026;2023-03-01T14:59:02;102127.19;;;12.02;52.15
69223;BME280;56514;51.816;-0.026;2023-03-01T15:01:47;102127.25;;;12.17;51.91
69223;BME280;56514;51.816;-0.026;2023-03-01T15:04:32;102124.00;;;12.45;51.64
69223;BME280;56514;51.816;-0.026;2023-03-01T15:07:18;102114.78;;;14.62;50.13
69223;BME280;56514;51.816;-0.026;2023-03-01T15:10:05;102113.25;;;18.97;41.67
69223;BME280;56514;51.816;-0.026;2023-03-01T15:12:51;102098.09;;;21.99;34.65
69223;BME280;56514;51.816;-0.026;2023-03-01T15:15:41;102096.69;;;21.19;32.96
69223;BME280;56514;51.816;-0.026;2023-03-01T15:18:28;102100.78;;;18.43;37.92
69223;BME280;56514;51.816;-0.026;2023-03-01T15:21:17;102099.06;;;16.30;42.11
69223;BME280;56514;51.816;-0.026;2023-03-01T15:27:03;102090.38;;;14.56;45.65
69223;BME280;56514;51.816;-0.026;2023-03-01T15:30:01;102097.66;;;14.10;46.75
69223;BME280;56514;51.816;-0.026;2023-03-01T15:32:46;102093.53;;;13.76;47.60
69223;BME280;56514;51.816;-0.026;2023-03-01T15:35:42;102082.44;;;13.40;47.98
69223;BME280;56514;51.816;-0.026;2023-03-01T15:41:29;102078.09;;;13.83;49.38
69223;BME280;56514;51.816;-0.026;2023-03-01T15:44:26;102070.97;;;18.14;41.19
69223;BME280;56514;51.816;-0.026;2023-03-01T15:47:24;102066.41;;;22.02;36.12
69223;BME280;56514;51.816;-0.026;2023-03-01T15:50:28;102059.75;;;25.03;30.33
69223;BME280;56514;51.816;-0.026;2023-03-01T15:53:14;102050.69;;;27.47;27.99
69223;BME280;56514;51.816;-0.026;2023-03-01T15:55:59;102034.13;;;26.89;24.25
69223;BME280;56514;51.816;-0.026;2023-03-01T15:58:44;102040.41;;;24.82;28.61
69223;BME280;56514;51.816;-0.026;2023-03-01T16:01:30;102034.28;;;23.79;29.28
69223;BME280;56514;51.816;-0.026;2023-03-01T16:04:17;102017.38;;;23.69;29.17
69223;BME280;56514;51.816;-0.026;2023-03-01T16:07:06;102019.78;;;22.85;30.94
69223;BME280;56514;51.816;-0.026;2023-03-01T16:09:52;102017.22;;;24.22;29.09
69223;BME280;56514;51.816;-0.026;2023-03-01T16:12:37;102004.19;;;26.13;27.08
69223;BME280;56514;51.816;-0.026;2023-03-01T16:15:25;101999.50;;;27.29;23.97
69223;BME280;56514;51.816;-0.026;2023-03-01T16:18:11;102007.84;;;24.68;26.51
69223;BME280;56514;51.816;-0.026;2023-03-01T16:20:56;102006.53;;;22.74;29.86
69223;BME280;56514;51.816;-0.026;2023-03-01T16:23:43;102000.19;;;24.13;28.74
69223;BME280;56514;51.816;-0.026;2023-03-01T16:26:29;102002.00;;;26.01;26.21